createdAt,value
2022-12-14T00:01:53.955Z,27.09
2022-12-14T00:04:21.932Z,27.08
2022-12-14T00:06:49.937Z,27.08
2022-12-14T00:09:19.271Z,27.07
2022-12-14T00:11:47.258Z,27.06
2022-12-14T00:14:15.363Z,27.05
2022-12-14T00:16:43.478Z,27.04
2022-12-14T00:19:12.391Z,27.04
2022-12-14T00:21:40.343Z,27.02
2022-12-14T00:24:08.492Z,27.02
2022-12-14T00:26:37.906Z,27.03
2022-12-14T00:29:05.894Z,26.73
2022-12-14T00:31:33.931Z,27.02
2022-12-14T00:34:02.190Z,27.02
2022-12-14T00:36:31.455Z,26.91
2022-12-14T00:38:59.875Z,27.01
2022-12-14T00:41:27.864Z,27.00
2022-12-14T00:43:57.293Z,27.01
2022-12-14T00:46:25.418Z,26.98
2022-12-14T00:48:53.567Z,27.00
2022-12-14T00:51:23.068Z,27.02
2022-12-14T00:53:50.986Z,27.04
2022-12-14T00:56:18.874Z,27.03
2022-12-14T00:58:51.754Z,27.06
2022-12-14T01:01:21.953Z,26.96
2022-12-14T01:03:50.172Z,27.04
2022-12-14T01:06:20.189Z,27.01
2022-12-14T01:08:49.016Z,26.99
2022-12-14T01:11:16.944Z,26.94
2022-12-14T01:13:44.976Z,26.92
2022-12-14T01:16:17.926Z,26.91
2022-12-14T01:18:47.456Z,26.91
2022-12-14T01:21:17.757Z,26.84
2022-12-14T01:23:46.763Z,26.84
2022-12-14T01:26:16.734Z,26.83
2022-12-14T01:28:45.900Z,26.82
2022-12-14T01:31:15.848Z,26.84
2022-12-14T01:33:44.801Z,26.82
2022-12-14T01:36:16.702Z,26.84
2022-12-14T01:38:45.305Z,26.72
2022-12-14T01:41:25.099Z,26.80
2022-12-14T01:43:54.801Z,26.76
2022-12-14T01:46:29.393Z,26.79
2022-12-14T01:49:01.571Z,26.76
2022-12-14T01:51:32.673Z,26.73
2022-12-14T01:54:03.663Z,26.74
2022-12-14T01:56:33.711Z,26.72
2022-12-14T01:59:07.353Z,26.72
2022-12-14T02:01:35.880Z,26.70
2022-12-14T02:04:05.014Z,26.68
2022-12-14T02:06:36.902Z,26.67
2022-12-14T02:09:09.068Z,26.65
2022-12-14T02:11:44.543Z,26.63
2022-12-14T02:14:12.556Z,26.61
2022-12-14T02:16:41.667Z,26.62
2022-12-14T02:19:09.750Z,26.60
2022-12-14T02:21:55.510Z,26.62
2022-12-14T02:24:44.119Z,26.61
2022-12-14T02:27:27.181Z,26.59
2022-12-14T02:30:08.337Z,26.59
2022-12-14T02:32:59.593Z,26.57
2022-12-14T02:35:39.611Z,26.56
2022-12-14T02:38:19.466Z,26.55
2022-12-14T02:40:56.147Z,26.56
2022-12-14T02:43:32.656Z,26.57
2022-12-14T02:46:10.964Z,26.57
2022-12-14T02:48:43.086Z,26.54
2022-12-14T02:51:22.831Z,26.49
2022-12-14T02:53:57.953Z,26.48
2022-12-14T02:56:34.986Z,26.48
2022-12-14T02:59:06.035Z,26.45
2022-12-14T03:01:37.880Z,26.47
2022-12-14T03:04:07.244Z,26.43
2022-12-14T03:06:35.252Z,26.42
2022-12-14T03:09:06.011Z,26.44
2022-12-14T03:11:38.425Z,26.44
2022-12-14T03:14:11.215Z,26.43
2022-12-14T03:16:44.179Z,26.31
2022-12-14T03:19:18.938Z,26.42
2022-12-14T03:21:50.263Z,26.38
2022-12-14T03:24:22.385Z,26.41
2022-12-14T03:26:55.868Z,26.41
2022-12-14T03:29:28.440Z,26.42
2022-12-14T03:32:00.564Z,26.43
2022-12-14T03:34:32.191Z,26.40
2022-12-14T03:37:05.660Z,26.39
2022-12-14T03:39:35.518Z,26.40
2022-12-14T03:42:11.523Z,26.42
2022-12-14T03:44:49.082Z,26.31
2022-12-14T03:47:44.931Z,26.42
2022-12-14T03:50:17.776Z,26.40
2022-12-14T03:52:54.022Z,26.38
2022-12-14T03:55:29.776Z,26.34
2022-12-14T03:58:12.260Z,26.40
2022-12-14T04:00:46.220Z,26.40
2022-12-14T04:03:24.129Z,26.39
2022-12-14T04:05:56.293Z,26.34
2022-12-14T04:08:37.280Z,26.41
2022-12-14T04:11:26.237Z,26.36
2022-12-14T04:14:17.906Z,26.32
2022-12-14T04:17:06.476Z,26.31
2022-12-14T04:19:42.551Z,26.33
2022-12-14T04:22:14.772Z,26.29
2022-12-14T04:25:05.325Z,26.31
2022-12-14T04:27:38.406Z,26.29
2022-12-14T04:30:09.148Z,26.29
2022-12-14T04:32:42.278Z,26.25
2022-12-14T04:35:19.199Z,26.30
2022-12-14T04:37:53.668Z,26.30
2022-12-14T04:40:25.655Z,26.30
2022-12-14T04:42:56.783Z,26.29
2022-12-14T04:45:31.135Z,26.03
2022-12-14T04:48:09.672Z,26.30
2022-12-14T04:50:43.805Z,26.30
2022-12-14T04:53:15.077Z,26.30
2022-12-14T04:55:50.104Z,26.30
2022-12-14T04:58:23.280Z,26.29
2022-12-14T05:01:05.392Z,26.30
2022-12-14T05:03:37.105Z,26.32
2022-12-14T05:06:16.231Z,26.23
2022-12-14T05:09:03.194Z,26.33
2022-12-14T05:14:30.795Z,26.25
2022-12-14T05:17:03.435Z,26.25
2022-12-14T05:19:34.823Z,26.17
2022-12-14T05:22:08.036Z,26.28
2022-12-14T05:24:36.123Z,26.25
2022-12-14T05:27:04.055Z,26.10
2022-12-14T05:29:32.088Z,26.20
2022-12-14T05:32:00.709Z,26.23
2022-12-14T05:34:28.739Z,26.21
2022-12-14T05:36:56.689Z,26.19
2022-12-14T05:39:26.042Z,26.21
2022-12-14T05:41:54.606Z,26.18
2022-12-14T05:44:22.736Z,26.18
2022-12-14T05:46:50.655Z,26.18
2022-12-14T05:49:18.638Z,26.17
2022-12-14T05:51:46.633Z,26.15
2022-12-14T05:54:14.583Z,26.14
2022-12-14T05:56:43.973Z,26.16
2022-12-14T05:59:15.626Z,26.14
2022-12-14T06:01:44.365Z,26.14
2022-12-14T06:04:13.353Z,26.07
2022-12-14T06:06:41.392Z,26.17
2022-12-14T06:09:11.360Z,26.18
2022-12-14T06:11:41.079Z,26.18
2022-12-14T06:14:11.456Z,26.17
2022-12-14T06:16:41.283Z,26.16
2022-12-14T06:19:09.500Z,26.13
2022-12-14T06:21:40.027Z,26.15
2022-12-14T06:24:09.272Z,26.02
2022-12-14T06:26:40.862Z,26.14
2022-12-14T06:29:16.596Z,26.14
2022-12-14T06:31:44.657Z,26.13
2022-12-14T06:34:12.825Z,25.91
2022-12-14T06:36:43.528Z,26.12
2022-12-14T06:39:13.948Z,25.99
2022-12-14T06:41:42.150Z,26.11
2022-12-14T06:44:13.442Z,26.11
2022-12-14T06:46:41.807Z,26.14
2022-12-14T06:49:14.872Z,26.15
2022-12-14T06:51:43.365Z,26.14
2022-12-14T06:54:12.535Z,26.15
2022-12-14T06:56:41.032Z,26.14
2022-12-14T06:59:09.685Z,26.14
2022-12-14T07:01:39.688Z,26.15
2022-12-14T07:04:08.713Z,26.15
2022-12-14T07:06:38.717Z,26.14
2022-12-14T07:09:08.317Z,26.14
2022-12-14T07:11:36.551Z,26.14
2022-12-14T07:14:06.341Z,26.14
2022-12-14T07:16:36.962Z,26.13
2022-12-14T07:19:06.628Z,26.16
2022-12-14T07:21:34.865Z,26.18
2022-12-14T07:24:03.334Z,26.16
2022-12-14T07:26:31.428Z,26.17
2022-12-14T07:29:00.559Z,26.15
2022-12-14T07:31:30.495Z,26.16
2022-12-14T07:34:01.047Z,26.19
2022-12-14T07:36:33.066Z,26.21
2022-12-14T07:39:01.038Z,26.18
2022-12-14T07:41:32.460Z,26.18
2022-12-14T07:44:01.925Z,26.17
2022-12-14T07:46:32.262Z,26.08
2022-12-14T07:49:01.711Z,26.12
2022-12-14T07:51:33.244Z,26.19
2022-12-14T07:54:02.012Z,26.15
2022-12-14T07:56:31.723Z,26.15
2022-12-14T07:59:01.149Z,26.16
2022-12-14T08:01:31.439Z,26.17
2022-12-14T08:04:01.099Z,26.18
2022-12-14T08:06:30.726Z,26.19
2022-12-14T08:08:59.279Z,26.20
2022-12-14T08:11:27.440Z,26.18
2022-12-14T08:13:55.696Z,26.20
2022-12-14T08:16:24.530Z,26.22
2022-12-14T08:18:54.295Z,26.21
2022-12-14T08:21:23.271Z,26.11
2022-12-14T08:23:54.480Z,26.20
2022-12-14T08:26:23.716Z,26.19
2022-12-14T08:28:51.693Z,26.22
2022-12-14T08:31:21.716Z,26.24
2022-12-14T08:33:50.882Z,26.28
2022-12-14T08:36:22.426Z,26.31
2022-12-14T08:38:55.373Z,26.33
2022-12-14T08:41:24.034Z,26.31
2022-12-14T08:43:56.499Z,26.35
2022-12-14T08:46:25.748Z,26.40
2022-12-14T08:48:55.424Z,26.39
2022-12-14T08:51:24.759Z,26.41
2022-12-14T08:53:55.507Z,26.45
2022-12-14T08:56:26.202Z,26.48
2022-12-14T08:58:54.816Z,26.51
2022-12-14T09:01:30.337Z,26.49
2022-12-14T09:04:05.025Z,26.52
2022-12-14T09:06:35.457Z,26.55
2022-12-14T09:09:08.057Z,26.42
2022-12-14T09:11:38.872Z,26.53
2022-12-14T09:14:07.513Z,26.52
2022-12-14T09:16:35.674Z,26.52
2022-12-14T09:19:03.747Z,26.52
2022-12-14T09:21:32.342Z,26.49
2022-12-14T09:24:00.488Z,26.49
2022-12-14T09:26:30.744Z,26.49
2022-12-14T09:28:59.056Z,26.46
2022-12-14T09:31:28.876Z,26.44
2022-12-14T09:33:57.362Z,26.43
2022-12-14T09:36:28.639Z,26.42
2022-12-14T09:38:57.802Z,26.43
2022-12-14T09:41:38.720Z,26.40
2022-12-14T09:44:18.737Z,26.33
2022-12-14T09:46:57.404Z,26.29
2022-12-14T09:49:29.384Z,26.27
2022-12-14T09:52:01.449Z,26.25
2022-12-14T09:54:32.996Z,26.24
2022-12-14T09:57:08.898Z,26.21
2022-12-14T09:59:36.950Z,26.18
2022-12-14T10:02:31.704Z,26.20
2022-12-14T10:05:21.107Z,26.20
2022-12-14T10:07:59.663Z,26.09
2022-12-14T10:10:32.858Z,26.23
2022-12-14T10:13:11.177Z,26.26
2022-12-14T10:15:45.081Z,26.25
2022-12-14T10:18:58.815Z,26.24
2022-12-14T10:21:35.071Z,26.22
2022-12-14T10:24:06.193Z,26.25
2022-12-14T10:26:42.580Z,26.28
2022-12-14T10:29:18.663Z,26.27
2022-12-14T10:31:56.800Z,26.28
2022-12-14T10:34:29.456Z,26.25
2022-12-14T10:37:07.480Z,26.28
2022-12-14T10:39:49.590Z,26.27
2022-12-14T10:42:25.620Z,26.26
2022-12-14T10:45:39.231Z,25.98
2022-12-14T10:48:05.078Z,26.24
2022-12-14T10:50:50.036Z,26.26
2022-12-14T10:53:25.134Z,26.26
2022-12-14T10:55:57.921Z,26.24
2022-12-14T10:58:26.827Z,26.21
2022-12-14T11:00:56.539Z,26.24
2022-12-14T11:03:24.616Z,25.97
2022-12-14T11:05:59.719Z,26.13
2022-12-14T11:08:43.851Z,26.26
2022-12-14T11:11:19.693Z,26.27
2022-12-14T11:13:53.112Z,26.30
2022-12-14T11:16:35.651Z,26.31
2022-12-14T11:19:06.877Z,26.18
2022-12-14T11:21:39.262Z,26.26
2022-12-14T11:24:08.380Z,26.28
2022-12-14T11:26:39.182Z,26.29
2022-12-14T11:29:17.371Z,26.29
2022-12-14T11:31:48.075Z,26.29
2022-12-14T11:34:26.641Z,26.20
2022-12-14T11:36:54.775Z,26.29
2022-12-14T11:39:24.111Z,26.38
2022-12-14T11:42:00.858Z,26.40
2022-12-14T11:44:37.325Z,26.43
2022-12-14T11:47:12.691Z,26.42
2022-12-14T11:49:46.091Z,26.40
2022-12-14T11:52:17.191Z,26.38
2022-12-14T11:54:49.746Z,26.40
2022-12-14T11:57:26.506Z,26.42
2022-12-14T11:59:57.695Z,26.41
2022-12-14T12:02:31.462Z,26.45
2022-12-14T12:05:05.797Z,26.46
2022-12-14T12:07:35.968Z,26.51
2022-12-14T12:10:15.720Z,26.52
2022-12-14T12:12:54.345Z,26.54
2022-12-14T12:15:26.268Z,26.56
2022-12-14T12:18:00.847Z,26.53
2022-12-14T12:20:35.528Z,26.41
2022-12-14T12:23:11.097Z,26.59
2022-12-14T12:25:41.224Z,26.58
2022-12-14T12:28:16.794Z,26.62
2022-12-14T12:30:50.176Z,26.65
2022-12-14T12:33:27.805Z,26.66
2022-12-14T12:35:56.947Z,26.60
2022-12-14T12:38:42.974Z,26.30
2022-12-14T12:41:29.200Z,26.56
2022-12-14T12:44:06.338Z,26.55
2022-12-14T12:46:53.551Z,26.53
2022-12-14T12:49:28.149Z,26.50
2022-12-14T12:52:00.788Z,26.49
2022-12-14T12:54:32.316Z,26.40
2022-12-14T12:57:03.553Z,26.40
2022-12-14T12:59:37.651Z,26.41
2022-12-14T13:02:19.643Z,26.45
2022-12-14T13:04:53.034Z,26.50
2022-12-14T13:07:29.507Z,26.57
2022-12-14T13:10:05.895Z,26.62
2022-12-14T13:12:38.475Z,26.63
2022-12-14T13:15:16.423Z,26.66
2022-12-14T13:17:49.387Z,26.68
2022-12-14T13:20:23.561Z,26.71
2022-12-14T13:22:52.108Z,26.69
2022-12-14T13:25:25.131Z,26.71
2022-12-14T13:28:07.013Z,26.71
2022-12-14T13:30:52.477Z,26.70
2022-12-14T13:33:53.552Z,26.67
2022-12-14T13:36:49.304Z,26.68
2022-12-14T13:39:39.747Z,26.68
2022-12-14T13:42:09.677Z,26.66
2022-12-14T13:44:56.005Z,26.67
2022-12-14T13:47:30.431Z,26.66
2022-12-14T13:52:51.835Z,26.56
2022-12-14T13:55:32.050Z,26.56
2022-12-14T13:58:17.433Z,26.51
2022-12-14T14:00:58.417Z,26.51
2022-12-14T14:04:14.491Z,26.49
2022-12-14T14:06:43.322Z,26.20
2022-12-14T14:10:02.100Z,26.46
2022-12-14T14:12:41.794Z,26.40
2022-12-14T14:15:38.145Z,26.41
2022-12-14T14:18:17.157Z,26.41
2022-12-14T14:20:47.837Z,26.41
2022-12-14T14:23:57.346Z,26.37
2022-12-14T14:26:29.261Z,26.36
2022-12-14T14:29:25.961Z,26.36
2022-12-14T14:32:01.803Z,26.36
2022-12-14T14:34:46.915Z,26.38
2022-12-14T14:37:27.003Z,26.34
2022-12-14T14:40:13.459Z,26.33
2022-12-14T14:42:54.186Z,26.30
2022-12-14T14:45:38.894Z,26.28
2022-12-14T14:48:20.359Z,26.26
2022-12-14T14:50:50.689Z,26.22
2022-12-14T14:53:31.205Z,26.22
2022-12-14T14:56:36.145Z,26.18
2022-12-14T14:59:43.840Z,26.14
2022-12-14T15:02:35.193Z,26.13
2022-12-14T15:05:40.824Z,26.13
2022-12-14T15:07:55.769Z,26.12
2022-12-14T15:10:29.713Z,26.11
2022-12-14T15:13:02.693Z,26.11
2022-12-14T15:15:36.901Z,26.13
2022-12-14T15:18:22.874Z,26.14
2022-12-14T15:20:58.608Z,26.15
2022-12-14T15:23:36.679Z,26.15
2022-12-14T15:26:16.288Z,26.16
2022-12-14T15:28:48.759Z,26.15
2022-12-14T15:31:17.131Z,26.17
2022-12-14T15:33:48.982Z,26.07
2022-12-14T15:36:19.099Z,26.18
2022-12-14T15:38:55.043Z,26.17
2022-12-14T15:41:25.996Z,26.16
2022-12-14T15:43:59.860Z,26.18
2022-12-14T15:46:31.013Z,26.19
2022-12-14T15:49:01.742Z,26.20
2022-12-14T15:51:33.259Z,26.16
2022-12-14T15:54:04.367Z,26.20
2022-12-14T15:56:34.712Z,26.17
2022-12-14T15:59:05.164Z,26.19
2022-12-14T16:01:38.348Z,26.18
2022-12-14T16:04:12.061Z,26.14
2022-12-14T16:06:43.394Z,26.10
2022-12-14T16:09:21.479Z,26.10
2022-12-14T16:11:52.306Z,26.06
2022-12-14T16:14:24.006Z,26.04
2022-12-14T16:16:52.527Z,25.99
2022-12-14T16:19:29.737Z,25.98
2022-12-14T16:22:14.337Z,25.91
2022-12-14T16:24:59.230Z,25.85
2022-12-14T16:27:28.024Z,25.76
2022-12-14T16:30:07.936Z,25.77
2022-12-14T16:32:36.144Z,25.76
2022-12-14T16:35:06.143Z,25.82
2022-12-14T16:37:34.594Z,25.80
2022-12-14T16:40:02.860Z,25.81
2022-12-14T16:42:33.135Z,25.83
2022-12-14T16:45:01.218Z,25.91
2022-12-14T16:48:02.205Z,25.95
2022-12-14T16:50:55.544Z,25.88
2022-12-14T16:53:24.506Z,25.86
2022-12-14T16:56:03.989Z,25.86
2022-12-14T16:58:32.251Z,25.83
2022-12-14T17:01:03.088Z,25.88
2022-12-14T17:03:32.060Z,25.83
2022-12-14T17:06:05.039Z,25.79
2022-12-14T17:08:34.427Z,25.80
2022-12-14T17:11:03.317Z,25.56
2022-12-14T17:13:31.688Z,25.85
2022-12-14T17:16:02.742Z,25.85
2022-12-14T17:18:34.254Z,25.81
2022-12-14T17:21:04.106Z,25.80
2022-12-14T17:23:33.318Z,25.78
2022-12-14T17:26:01.510Z,25.80
2022-12-14T17:28:32.720Z,25.82
2022-12-14T17:31:01.966Z,25.78
2022-12-14T17:33:32.494Z,25.87
2022-12-14T17:36:00.802Z,25.87
2022-12-14T17:38:30.120Z,25.89
2022-12-14T17:40:58.446Z,25.92
2022-12-14T17:43:28.514Z,25.83
2022-12-14T17:46:00.999Z,25.96
2022-12-14T17:48:29.670Z,25.94
2022-12-14T17:50:57.774Z,25.99
2022-12-14T17:53:30.193Z,26.00
2022-12-14T17:55:59.951Z,26.03
2022-12-14T17:58:27.890Z,25.96
2022-12-14T18:01:02.871Z,25.78
2022-12-14T18:03:36.172Z,25.62
2022-12-14T18:06:05.356Z,25.64
2022-12-14T18:08:33.455Z,25.81
2022-12-14T18:11:11.765Z,25.94
2022-12-14T18:13:42.231Z,26.00
2022-12-14T18:16:13.415Z,26.12
2022-12-14T18:18:41.834Z,26.19
2022-12-14T18:21:17.663Z,26.25
2022-12-14T18:23:46.269Z,26.27
2022-12-14T18:26:21.224Z,26.31
2022-12-14T18:28:49.763Z,26.35
2022-12-14T18:31:23.235Z,26.40
2022-12-14T18:33:52.494Z,26.41
2022-12-14T18:36:22.470Z,26.27
2022-12-14T18:38:53.303Z,26.40
2022-12-14T18:41:26.001Z,26.41
2022-12-14T18:43:54.814Z,26.39
2022-12-14T18:46:23.664Z,26.42
2022-12-14T18:48:52.251Z,26.41
2022-12-14T18:51:23.696Z,26.40
2022-12-14T18:53:52.646Z,26.42
2022-12-14T18:56:23.369Z,26.39
2022-12-14T18:58:52.048Z,26.39
2022-12-14T19:01:23.016Z,26.42
2022-12-14T19:03:52.048Z,26.42
2022-12-14T19:09:12.146Z,26.05
2022-12-14T19:11:43.818Z,26.40
2022-12-14T19:14:13.106Z,26.39
2022-12-14T19:16:42.394Z,26.40
2022-12-14T19:19:11.434Z,26.40
2022-12-14T19:21:40.423Z,26.28
2022-12-14T19:24:10.278Z,26.40
2022-12-14T19:26:44.607Z,26.41
2022-12-14T19:29:21.911Z,26.41
2022-12-14T19:31:54.200Z,26.39
2022-12-14T19:34:27.157Z,26.39
2022-12-14T19:36:56.142Z,26.40
2022-12-14T19:39:28.053Z,26.38
2022-12-14T19:42:00.787Z,26.38
2022-12-14T19:44:33.883Z,26.39
2022-12-14T19:47:03.336Z,26.36
2022-12-14T19:49:31.400Z,26.38
2022-12-14T19:52:00.300Z,26.38
2022-12-14T19:54:31.461Z,26.40
2022-12-14T19:57:00.341Z,26.41
2022-12-14T19:59:30.767Z,26.25
2022-12-14T20:01:59.902Z,26.38
2022-12-14T20:04:28.986Z,26.35
2022-12-14T20:06:57.615Z,26.33
2022-12-14T20:09:26.524Z,26.33
2022-12-14T20:11:55.417Z,26.31
2022-12-14T20:14:27.055Z,26.33
2022-12-14T20:16:57.216Z,26.35
2022-12-14T20:19:26.603Z,26.33
2022-12-14T20:21:55.559Z,26.29
2022-12-14T20:24:23.641Z,26.34
2022-12-14T20:26:53.793Z,26.34
2022-12-14T20:29:22.604Z,26.34
2022-12-14T20:31:51.082Z,26.35
2022-12-14T20:34:21.358Z,26.39
2022-12-14T20:36:49.892Z,26.37
2022-12-14T20:39:18.631Z,26.38
2022-12-14T20:41:46.633Z,26.38
2022-12-14T20:44:16.335Z,26.37
2022-12-14T20:46:46.896Z,26.38
2022-12-14T20:49:17.204Z,26.38
2022-12-14T20:51:47.883Z,26.41
2022-12-14T20:54:18.244Z,26.26
2022-12-14T20:56:49.200Z,26.40
2022-12-14T20:59:17.716Z,26.43
2022-12-14T21:01:51.735Z,26.46
2022-12-14T21:04:23.380Z,26.45
2022-12-14T21:06:52.708Z,26.44
2022-12-14T21:09:20.767Z,26.46
2022-12-14T21:12:07.839Z,26.47
2022-12-14T21:14:37.808Z,26.47
2022-12-14T21:17:06.482Z,26.46
2022-12-14T21:19:35.905Z,26.48
2022-12-14T21:22:06.160Z,26.49
2022-12-14T21:27:26.192Z,26.47
2022-12-14T21:29:55.013Z,26.48
2022-12-14T21:32:24.090Z,26.41
2022-12-14T21:34:52.276Z,26.46
2022-12-14T21:37:22.029Z,26.45
2022-12-14T21:39:54.601Z,26.44
2022-12-14T21:42:22.781Z,26.42
2022-12-14T21:44:52.526Z,26.40
2022-12-14T21:47:23.000Z,26.42
2022-12-14T21:49:51.061Z,26.41
2022-12-14T21:52:22.729Z,26.40
2022-12-14T21:54:51.173Z,26.36
2022-12-14T21:57:38.481Z,26.38
2022-12-14T22:00:09.152Z,26.38
2022-12-14T22:02:41.657Z,26.36
2022-12-14T22:05:10.478Z,26.16
2022-12-14T22:07:39.901Z,26.37
2022-12-14T22:10:08.664Z,26.35
2022-12-14T22:12:36.883Z,26.34
2022-12-14T22:15:05.329Z,26.36
2022-12-14T22:17:33.270Z,26.40
2022-12-14T22:20:01.202Z,26.39
2022-12-14T22:22:29.181Z,26.42
2022-12-14T22:24:59.664Z,26.44
2022-12-14T22:27:27.611Z,26.28
2022-12-14T22:29:55.581Z,26.44
2022-12-14T22:32:23.575Z,26.44
2022-12-14T22:34:51.562Z,26.45
2022-12-14T22:37:19.725Z,26.42
2022-12-14T22:39:48.376Z,26.46
2022-12-14T22:42:18.269Z,26.33
2022-12-14T22:44:46.387Z,26.36
2022-12-14T22:47:14.336Z,26.46
2022-12-14T22:49:43.327Z,26.48
2022-12-14T22:52:11.796Z,26.47
2022-12-14T22:54:41.158Z,26.48
2022-12-14T22:57:14.448Z,26.45
2022-12-14T22:59:49.582Z,26.52
2022-12-14T23:02:18.255Z,26.52
2022-12-14T23:04:46.424Z,26.53
2022-12-14T23:07:18.670Z,26.50
2022-12-14T23:10:04.615Z,26.57
2022-12-14T23:12:50.142Z,26.57
2022-12-14T23:15:37.179Z,26.57
2022-12-14T23:18:24.730Z,26.60
2022-12-14T23:21:11.070Z,26.59
2022-12-14T23:23:56.852Z,26.45
2022-12-14T23:26:42.092Z,26.58
2022-12-14T23:29:27.363Z,26.60
2022-12-14T23:32:14.671Z,26.47
2022-12-14T23:35:00.432Z,26.56
2022-12-14T23:37:46.276Z,26.57
2022-12-14T23:40:32.105Z,26.62
2022-12-14T23:43:26.688Z,26.64
2022-12-14T23:46:12.844Z,26.40
2022-12-14T23:49:00.079Z,26.63
2022-12-14T23:51:45.716Z,26.58
2022-12-14T23:54:31.504Z,26.67
2022-12-14T23:57:17.270Z,26.69
